sensor_id;sensor_type;location;lat;lon;timestamp;P1;durP1;ratioP1;P2;durP2;ratioP2
64641;SDS011;59936;51.490;5.436;2022-08-24T00:00:24;25.58;;;22.83;;
64641;SDS011;59936;51.490;5.436;2022-08-24T00:01:22;24.70;;;21.85;;
64641;SDS011;59936;51.490;5.436;2022-08-24T00:02:20;22.80;;;20.65;;
64641;SDS011;59936;51.490;5.436;2022-08-24T00:03:17;26.05;;;21.42;;
64641;SDS011;59936;51.490;5.436;2022-08-24T00:04:14;24.73;;;22.13;;
64641;SDS011;59936;51.490;5.436;2022-08-24T00:05:12;24.63;;;22.00;;
64641;SDS011;59936;51.490;5.436;2022-08-24T00:06:11;25.65;;;22.45;;
64641;SDS011;59936;51.490;5.436;2022-08-24T00:07:13;25.15;;;22.52;;
64641;SDS011;59936;51.490;5.436;2022-08-24T00:08:12;24.98;;;22.10;;
64641;SDS011;59936;51.490;5.436;2022-08-24T00:09:10;25.58;;;22.67;;
64641;SDS011;59936;51.490;5.436;2022-08-24T00:10:08;26.98;;;23.45;;
64641;SDS011;59936;51.490;5.436;2022-08-24T00:11:07;27.02;;;24.02;;
64641;SDS011;59936;51.490;5.436;2022-08-24T00:12:05;25.75;;;23.10;;
64641;SDS011;59936;51.490;5.436;2022-08-24T00:13:02;28.17;;;23.20;;
64641;SDS011;59936;51.490;5.436;2022-08-24T00:14:00;27.63;;;22.92;;
64641;SDS011;59936;51.490;5.436;2022-08-24T00:14:57;29.23;;;26.00;;
64641;SDS011;59936;51.490;5.436;2022-08-24T00:15:55;28.65;;;25.75;;
64641;SDS011;59936;51.490;5.436;2022-08-24T00:16:53;27.58;;;24.67;;
64641;SDS011;59936;51.490;5.436;2022-08-24T00:17:50;32.75;;;25.55;;
64641;SDS011;59936;51.490;5.436;2022-08-24T00:18:48;28.58;;;25.27;;
64641;SDS011;59936;51.490;5.436;2022-08-24T00:19:46;31.13;;;24.92;;
64641;SDS011;59936;51.490;5.436;2022-08-24T00:20:43;27.88;;;24.98;;
64641;SDS011;59936;51.490;5.436;2022-08-24T00:21:42;28.63;;;25.27;;
64641;SDS011;59936;51.490;5.436;2022-08-24T00:22:39;28.58;;;24.60;;
64641;SDS011;59936;51.490;5.436;2022-08-24T00:23:38;28.77;;;25.27;;
64641;SDS011;59936;51.490;5.436;2022-08-24T00:24:35;28.42;;;24.80;;
64641;SDS011;59936;51.490;5.436;2022-08-24T00:25:33;29.75;;;26.60;;
64641;SDS011;59936;51.490;5.436;2022-08-24T00:26:31;27.95;;;24.88;;
64641;SDS011;59936;51.490;5.436;2022-08-24T00:27:28;28.63;;;25.73;;
64641;SDS011;59936;51.490;5.436;2022-08-24T00:28:26;28.77;;;25.90;;
64641;SDS011;59936;51.490;5.436;2022-08-24T00:29:23;31.25;;;27.38;;
64641;SDS011;59936;51.490;5.436;2022-08-24T00:30:21;31.63;;;27.23;;
64641;SDS011;59936;51.490;5.436;2022-08-24T00:31:20;36.95;;;28.65;;
64641;SDS011;59936;51.490;5.436;2022-08-24T00:32:17;34.22;;;30.15;;
64641;SDS011;59936;51.490;5.436;2022-08-24T00:33:14;33.58;;;29.92;;
64641;SDS011;59936;51.490;5.436;2022-08-24T00:34:13;32.40;;;28.90;;
64641;SDS011;59936;51.490;5.436;2022-08-24T00:35:10;31.10;;;27.65;;
64641;SDS011;59936;51.490;5.436;2022-08-24T00:36:10;30.30;;;25.45;;
64641;SDS011;59936;51.490;5.436;2022-08-24T00:37:07;31.88;;;27.05;;
64641;SDS011;59936;51.490;5.436;2022-08-24T00:38:05;31.98;;;28.50;;
64641;SDS011;59936;51.490;5.436;2022-08-24T00:39:02;40.08;;;30.75;;
64641;SDS011;59936;51.490;5.436;2022-08-24T00:40:03;33.72;;;30.08;;
64641;SDS011;59936;51.490;5.436;2022-08-24T00:41:07;33.35;;;29.67;;
64641;SDS011;59936;51.490;5.436;2022-08-24T00:42:04;36.08;;;30.63;;
64641;SDS011;59936;51.490;5.436;2022-08-24T00:43:03;38.25;;;33.28;;
64641;SDS011;59936;51.490;5.436;2022-08-24T00:44:03;43.47;;;33.78;;
64641;SDS011;59936;51.490;5.436;2022-08-24T00:45:02;38.45;;;33.75;;
64641;SDS011;59936;51.490;5.436;2022-08-24T00:46:03;38.42;;;34.30;;
64641;SDS011;59936;51.490;5.436;2022-08-24T00:47:23;39.95;;;32.78;;
64641;SDS011;59936;51.490;5.436;2022-08-24T00:48:29;33.78;;;29.98;;
64641;SDS011;59936;51.490;5.436;2022-08-24T00:49:34;32.92;;;29.52;;
64641;SDS011;59936;51.490;5.436;2022-08-24T00:50:46;35.17;;;29.95;;
64641;SDS011;59936;51.490;5.436;2022-08-24T00:53:14;35.55;;;29.30;;
64641;SDS011;59936;51.490;5.436;2022-08-24T00:54:37;37.17;;;29.73;;
64641;SDS011;59936;51.490;5.436;2022-08-24T00:55:42;39.08;;;32.53;;
64641;SDS011;59936;51.490;5.436;2022-08-24T00:56:50;37.58;;;31.70;;
64641;SDS011;59936;51.490;5.436;2022-08-24T00:57:56;37.83;;;30.70;;
64641;SDS011;59936;51.490;5.436;2022-08-24T00:59:01;37.03;;;30.55;;
64641;SDS011;59936;51.490;5.436;2022-08-24T01:00:10;37.80;;;31.88;;
64641;SDS011;59936;51.490;5.436;2022-08-24T01:01:17;43.97;;;33.88;;
64641;SDS011;59936;51.490;5.436;2022-08-24T01:02:20;39.78;;;34.03;;
64641;SDS011;59936;51.490;5.436;2022-08-24T01:03:22;50.38;;;37.65;;
64641;SDS011;59936;51.490;5.436;2022-08-24T01:05:35;44.53;;;33.58;;
64641;SDS011;59936;51.490;5.436;2022-08-24T01:06:34;41.33;;;33.45;;
64641;SDS011;59936;51.490;5.436;2022-08-24T01:07:32;46.70;;;35.58;;
64641;SDS011;59936;51.490;5.436;2022-08-24T01:08:32;44.75;;;35.03;;
64641;SDS011;59936;51.490;5.436;2022-08-24T01:09:30;48.03;;;36.38;;
64641;SDS011;59936;51.490;5.436;2022-08-24T01:10:28;45.22;;;34.90;;
64641;SDS011;59936;51.490;5.436;2022-08-24T01:11:31;44.17;;;34.63;;
64641;SDS011;59936;51.490;5.436;2022-08-24T01:12:32;48.10;;;35.42;;
64641;SDS011;59936;51.490;5.436;2022-08-24T01:13:31;49.95;;;36.72;;
64641;SDS011;59936;51.490;5.436;2022-08-24T01:14:30;45.90;;;36.72;;
64641;SDS011;59936;51.490;5.436;2022-08-24T01:15:29;49.15;;;35.90;;
64641;SDS011;59936;51.490;5.436;2022-08-24T01:16:30;43.65;;;35.45;;
64641;SDS011;59936;51.490;5.436;2022-08-24T01:17:47;41.75;;;35.45;;
64641;SDS011;59936;51.490;5.436;2022-08-24T01:19:06;47.25;;;36.63;;
64641;SDS011;59936;51.490;5.436;2022-08-24T01:20:19;45.45;;;34.78;;
64641;SDS011;59936;51.490;5.436;2022-08-24T01:21:23;48.00;;;36.60;;
64641;SDS011;59936;51.490;5.436;2022-08-24T01:22:37;47.47;;;36.78;;
64641;SDS011;59936;51.490;5.436;2022-08-24T01:23:59;44.97;;;35.63;;
64641;SDS011;59936;51.490;5.436;2022-08-24T01:25:00;45.00;;;35.13;;
64641;SDS011;59936;51.490;5.436;2022-08-24T01:25:57;42.00;;;33.35;;
64641;SDS011;59936;51.490;5.436;2022-08-24T01:26:56;43.40;;;33.95;;
64641;SDS011;59936;51.490;5.436;2022-08-24T01:27:55;42.38;;;33.97;;
64641;SDS011;59936;51.490;5.436;2022-08-24T01:29:03;45.05;;;34.67;;
64641;SDS011;59936;51.490;5.436;2022-08-24T01:30:11;42.67;;;34.05;;
64641;SDS011;59936;51.490;5.436;2022-08-24T01:31:11;42.88;;;34.33;;
64641;SDS011;59936;51.490;5.436;2022-08-24T01:32:10;47.05;;;34.85;;
64641;SDS011;59936;51.490;5.436;2022-08-24T01:33:10;43.70;;;33.57;;
64641;SDS011;59936;51.490;5.436;2022-08-24T01:34:20;41.25;;;32.45;;
64641;SDS011;59936;51.490;5.436;2022-08-24T01:35:17;43.50;;;34.70;;
64641;SDS011;59936;51.490;5.436;2022-08-24T01:36:27;43.55;;;35.17;;
64641;SDS011;59936;51.490;5.436;2022-08-24T01:37:29;48.78;;;35.28;;
64641;SDS011;59936;51.490;5.436;2022-08-24T01:38:28;51.75;;;38.20;;
64641;SDS011;59936;51.490;5.436;2022-08-24T01:39:32;56.45;;;38.90;;
64641;SDS011;59936;51.490;5.436;2022-08-24T01:40:36;50.40;;;38.22;;
64641;SDS011;59936;51.490;5.436;2022-08-24T01:41:40;55.90;;;39.78;;
64641;SDS011;59936;51.490;5.436;2022-08-24T01:42:39;49.33;;;37.10;;
64641;SDS011;59936;51.490;5.436;2022-08-24T01:43:36;46.17;;;35.78;;
64641;SDS011;59936;51.490;5.436;2022-08-24T01:44:34;44.65;;;34.97;;
64641;SDS011;59936;51.490;5.436;2022-08-24T01:46:31;49.60;;;36.67;;
64641;SDS011;59936;51.490;5.436;2022-08-24T01:47:28;50.13;;;36.47;;
64641;SDS011;59936;51.490;5.436;2022-08-24T01:48:26;52.33;;;38.10;;
64641;SDS011;59936;51.490;5.436;2022-08-24T01:49:25;51.80;;;38.13;;
64641;SDS011;59936;51.490;5.436;2022-08-24T01:50:30;56.05;;;39.35;;
64641;SDS011;59936;51.490;5.436;2022-08-24T01:51:29;54.30;;;39.40;;
64641;SDS011;59936;51.490;5.436;2022-08-24T01:52:28;59.85;;;42.50;;
64641;SDS011;59936;51.490;5.436;2022-08-24T01:53:26;62.45;;;43.30;;
64641;SDS011;59936;51.490;5.436;2022-08-24T01:54:24;65.63;;;44.78;;
64641;SDS011;59936;51.490;5.436;2022-08-24T01:55:22;61.03;;;43.60;;
64641;SDS011;59936;51.490;5.436;2022-08-24T01:56:21;66.88;;;42.92;;
64641;SDS011;59936;51.490;5.436;2022-08-24T01:57:18;63.58;;;44.95;;
64641;SDS011;59936;51.490;5.436;2022-08-24T01:58:16;65.80;;;45.10;;
64641;SDS011;59936;51.490;5.436;2022-08-24T01:59:14;73.82;;;47.00;;
64641;SDS011;59936;51.490;5.436;2022-08-24T02:00:13;75.45;;;47.08;;
64641;SDS011;59936;51.490;5.436;2022-08-24T02:01:12;69.78;;;45.55;;
64641;SDS011;59936;51.490;5.436;2022-08-24T02:02:24;63.15;;;43.38;;
64641;SDS011;59936;51.490;5.436;2022-08-24T02:03:27;57.83;;;41.75;;
64641;SDS011;59936;51.490;5.436;2022-08-24T02:04:25;56.40;;;41.60;;
64641;SDS011;59936;51.490;5.436;2022-08-24T02:05:22;56.63;;;42.08;;
64641;SDS011;59936;51.490;5.436;2022-08-24T02:06:20;64.25;;;43.70;;
64641;SDS011;59936;51.490;5.436;2022-08-24T02:07:18;60.50;;;43.60;;
64641;SDS011;59936;51.490;5.436;2022-08-24T02:08:15;67.55;;;45.30;;
64641;SDS011;59936;51.490;5.436;2022-08-24T02:09:13;67.53;;;45.88;;
64641;SDS011;59936;51.490;5.436;2022-08-24T02:10:12;68.10;;;46.42;;
64641;SDS011;59936;51.490;5.436;2022-08-24T02:11:11;69.40;;;45.22;;
64641;SDS011;59936;51.490;5.436;2022-08-24T02:12:08;68.40;;;45.05;;
64641;SDS011;59936;51.490;5.436;2022-08-24T02:13:06;66.32;;;45.83;;
64641;SDS011;59936;51.490;5.436;2022-08-24T02:14:04;64.45;;;44.65;;
64641;SDS011;59936;51.490;5.436;2022-08-24T02:15:03;68.15;;;43.58;;
64641;SDS011;59936;51.490;5.436;2022-08-24T02:16:04;67.45;;;45.42;;
64641;SDS011;59936;51.490;5.436;2022-08-24T02:17:03;69.40;;;45.50;;
64641;SDS011;59936;51.490;5.436;2022-08-24T02:18:05;71.00;;;47.88;;
64641;SDS011;59936;51.490;5.436;2022-08-24T02:19:05;70.93;;;46.63;;
64641;SDS011;59936;51.490;5.436;2022-08-24T02:20:03;75.95;;;49.00;;
64641;SDS011;59936;51.490;5.436;2022-08-24T02:21:02;74.10;;;47.78;;
64641;SDS011;59936;51.490;5.436;2022-08-24T02:22:00;76.30;;;48.55;;
64641;SDS011;59936;51.490;5.436;2022-08-24T02:22:58;73.30;;;50.08;;
64641;SDS011;59936;51.490;5.436;2022-08-24T02:23:55;77.70;;;48.50;;
64641;SDS011;59936;51.490;5.436;2022-08-24T02:24:53;78.07;;;49.63;;
64641;SDS011;59936;51.490;5.436;2022-08-24T02:25:50;81.40;;;50.92;;
64641;SDS011;59936;51.490;5.436;2022-08-24T02:26:48;74.20;;;48.17;;
64641;SDS011;59936;51.490;5.436;2022-08-24T02:27:45;73.13;;;48.53;;
64641;SDS011;59936;51.490;5.436;2022-08-24T02:28:43;75.75;;;48.88;;
64641;SDS011;59936;51.490;5.436;2022-08-24T02:29:41;82.03;;;50.60;;
64641;SDS011;59936;51.490;5.436;2022-08-24T02:30:39;76.28;;;48.10;;
64641;SDS011;59936;51.490;5.436;2022-08-24T02:31:37;71.68;;;47.72;;
64641;SDS011;59936;51.490;5.436;2022-08-24T02:32:34;77.70;;;49.33;;
64641;SDS011;59936;51.490;5.436;2022-08-24T02:33:32;71.80;;;47.80;;
64641;SDS011;59936;51.490;5.436;2022-08-24T02:34:31;71.43;;;47.17;;
64641;SDS011;59936;51.490;5.436;2022-08-24T02:35:28;79.38;;;49.75;;
64641;SDS011;59936;51.490;5.436;2022-08-24T02:36:27;77.57;;;49.50;;
64641;SDS011;59936;51.490;5.436;2022-08-24T02:37:25;78.63;;;49.67;;
64641;SDS011;59936;51.490;5.436;2022-08-24T02:38:22;78.85;;;48.75;;
64641;SDS011;59936;51.490;5.436;2022-08-24T02:39:20;75.80;;;48.53;;
64641;SDS011;59936;51.490;5.436;2022-08-24T02:40:17;84.05;;;50.72;;
64641;SDS011;59936;51.490;5.436;2022-08-24T02:41:15;77.45;;;49.75;;
64641;SDS011;59936;51.490;5.436;2022-08-24T02:42:12;82.50;;;50.88;;
64641;SDS011;59936;51.490;5.436;2022-08-24T02:43:11;79.30;;;50.72;;
64641;SDS011;59936;51.490;5.436;2022-08-24T02:44:09;84.72;;;51.33;;
64641;SDS011;59936;51.490;5.436;2022-08-24T02:45:07;80.93;;;50.25;;
64641;SDS011;59936;51.490;5.436;2022-08-24T02:46:06;81.68;;;51.75;;
64641;SDS011;59936;51.490;5.436;2022-08-24T02:47:04;81.03;;;50.70;;
64641;SDS011;59936;51.490;5.436;2022-08-24T02:48:01;82.53;;;51.53;;
64641;SDS011;59936;51.490;5.436;2022-08-24T02:48:59;86.13;;;50.60;;
64641;SDS011;59936;51.490;5.436;2022-08-24T02:49:57;80.22;;;52.03;;
64641;SDS011;59936;51.490;5.436;2022-08-24T02:50:54;89.43;;;54.40;;
64641;SDS011;59936;51.490;5.436;2022-08-24T02:51:51;90.20;;;55.50;;
64641;SDS011;59936;51.490;5.436;2022-08-24T02:52:49;95.25;;;55.55;;
64641;SDS011;59936;51.490;5.436;2022-08-24T02:53:46;98.35;;;55.13;;
64641;SDS011;59936;51.490;5.436;2022-08-24T02:54:44;96.38;;;54.75;;
64641;SDS011;59936;51.490;5.436;2022-08-24T02:55:41;94.78;;;56.53;;
64641;SDS011;59936;51.490;5.436;2022-08-24T02:56:40;97.28;;;55.72;;
64641;SDS011;59936;51.490;5.436;2022-08-24T02:57:37;92.10;;;54.30;;
64641;SDS011;59936;51.490;5.436;2022-08-24T02:58:36;94.97;;;56.75;;
64641;SDS011;59936;51.490;5.436;2022-08-24T02:59:34;97.60;;;55.90;;
64641;SDS011;59936;51.490;5.436;2022-08-24T03:00:31;97.38;;;56.10;;
64641;SDS011;59936;51.490;5.436;2022-08-24T03:01:29;103.50;;;58.60;;
64641;SDS011;59936;51.490;5.436;2022-08-24T03:02:26;99.30;;;57.25;;
64641;SDS011;59936;51.490;5.436;2022-08-24T03:03:24;97.20;;;56.63;;
64641;SDS011;59936;51.490;5.436;2022-08-24T03:04:21;98.35;;;58.10;;
64641;SDS011;59936;51.490;5.436;2022-08-24T03:05:18;103.10;;;57.50;;
64641;SDS011;59936;51.490;5.436;2022-08-24T03:06:17;103.82;;;59.25;;
64641;SDS011;59936;51.490;5.436;2022-08-24T03:07:15;106.53;;;58.17;;
64641;SDS011;59936;51.490;5.436;2022-08-24T03:08:12;109.30;;;59.22;;
64641;SDS011;59936;51.490;5.436;2022-08-24T03:09:10;103.22;;;58.13;;
64641;SDS011;59936;51.490;5.436;2022-08-24T03:10:08;107.80;;;59.50;;
64641;SDS011;59936;51.490;5.436;2022-08-24T03:11:07;102.78;;;58.50;;
64641;SDS011;59936;51.490;5.436;2022-08-24T03:12:04;109.18;;;58.85;;
64641;SDS011;59936;51.490;5.436;2022-08-24T03:13:02;101.07;;;58.33;;
64641;SDS011;59936;51.490;5.436;2022-08-24T03:14:00;105.40;;;57.67;;
64641;SDS011;59936;51.490;5.436;2022-08-24T03:14:57;96.95;;;55.47;;
64641;SDS011;59936;51.490;5.436;2022-08-24T03:15:55;94.28;;;55.30;;
64641;SDS011;59936;51.490;5.436;2022-08-24T03:16:54;96.15;;;56.55;;
64641;SDS011;59936;51.490;5.436;2022-08-24T03:17:52;104.13;;;56.95;;
64641;SDS011;59936;51.490;5.436;2022-08-24T03:18:49;97.35;;;55.03;;
64641;SDS011;59936;51.490;5.436;2022-08-24T03:19:46;103.10;;;57.10;;
64641;SDS011;59936;51.490;5.436;2022-08-24T03:20:44;96.22;;;56.78;;
64641;SDS011;59936;51.490;5.436;2022-08-24T03:21:41;113.28;;;59.85;;
64641;SDS011;59936;51.490;5.436;2022-08-24T03:22:39;96.22;;;56.58;;
64641;SDS011;59936;51.490;5.436;2022-08-24T03:23:37;109.72;;;58.42;;
64641;SDS011;59936;51.490;5.436;2022-08-24T03:24:35;112.88;;;59.92;;
64641;SDS011;59936;51.490;5.436;2022-08-24T03:25:32;107.97;;;59.03;;
64641;SDS011;59936;51.490;5.436;2022-08-24T03:26:30;105.78;;;58.47;;
64641;SDS011;59936;51.490;5.436;2022-08-24T03:27:27;104.03;;;57.97;;
64641;SDS011;59936;51.490;5.436;2022-08-24T03:28:24;110.03;;;59.17;;
64641;SDS011;59936;51.490;5.436;2022-08-24T03:29:22;107.03;;;60.05;;
64641;SDS011;59936;51.490;5.436;2022-08-24T03:30:20;111.20;;;60.78;;
64641;SDS011;59936;51.490;5.436;2022-08-24T03:31:19;118.82;;;60.47;;
64641;SDS011;59936;51.490;5.436;2022-08-24T03:32:17;113.68;;;60.05;;
64641;SDS011;59936;51.490;5.436;2022-08-24T03:33:15;112.78;;;59.33;;
64641;SDS011;59936;51.490;5.436;2022-08-24T03:34:12;119.13;;;61.20;;
64641;SDS011;59936;51.490;5.436;2022-08-24T03:35:10;121.38;;;60.92;;
64641;SDS011;59936;51.490;5.436;2022-08-24T03:36:09;118.03;;;62.17;;
64641;SDS011;59936;51.490;5.436;2022-08-24T03:37:07;124.22;;;62.80;;
64641;SDS011;59936;51.490;5.436;2022-08-24T03:38:04;127.43;;;62.80;;
64641;SDS011;59936;51.490;5.436;2022-08-24T03:39:03;124.38;;;62.33;;
64641;SDS011;59936;51.490;5.436;2022-08-24T03:40:01;116.45;;;57.92;;
64641;SDS011;59936;51.490;5.436;2022-08-24T03:40:58;122.55;;;61.10;;
64641;SDS011;59936;51.490;5.436;2022-08-24T03:41:56;126.07;;;64.45;;
64641;SDS011;59936;51.490;5.436;2022-08-24T03:42:54;130.68;;;64.22;;
64641;SDS011;59936;51.490;5.436;2022-08-24T03:43:51;126.13;;;62.90;;
64641;SDS011;59936;51.490;5.436;2022-08-24T03:44:51;122.45;;;61.38;;
64641;SDS011;59936;51.490;5.436;2022-08-24T03:45:49;126.43;;;61.40;;
64641;SDS011;59936;51.490;5.436;2022-08-24T03:46:46;132.05;;;64.80;;
64641;SDS011;59936;51.490;5.436;2022-08-24T03:47:44;129.15;;;63.53;;
64641;SDS011;59936;51.490;5.436;2022-08-24T03:48:42;130.50;;;64.07;;
64641;SDS011;59936;51.490;5.436;2022-08-24T03:49:40;132.85;;;61.10;;
64641;SDS011;59936;51.490;5.436;2022-08-24T03:50:37;126.60;;;62.08;;
64641;SDS011;59936;51.490;5.436;2022-08-24T03:51:35;131.35;;;61.75;;
64641;SDS011;59936;51.490;5.436;2022-08-24T03:52:34;134.48;;;62.42;;
64641;SDS011;59936;51.490;5.436;2022-08-24T03:53:32;127.35;;;60.20;;
64641;SDS011;59936;51.490;5.436;2022-08-24T03:54:29;128.10;;;60.60;;
64641;SDS011;59936;51.490;5.436;2022-08-24T03:55:27;123.28;;;59.55;;
64641;SDS011;59936;51.490;5.436;2022-08-24T03:56:25;118.18;;;61.00;;
64641;SDS011;59936;51.490;5.436;2022-08-24T03:57:23;126.72;;;60.88;;
64641;SDS011;59936;51.490;5.436;2022-08-24T03:58:20;113.85;;;57.63;;
64641;SDS011;59936;51.490;5.436;2022-08-24T03:59:18;124.95;;;60.50;;
64641;SDS011;59936;51.490;5.436;2022-08-24T04:00:15;120.50;;;59.08;;
64641;SDS011;59936;51.490;5.436;2022-08-24T04:01:13;121.40;;;59.88;;
64641;SDS011;59936;51.490;5.436;2022-08-24T04:02:13;114.35;;;58.05;;
64641;SDS011;59936;51.490;5.436;2022-08-24T04:03:11;113.20;;;57.63;;
64641;SDS011;59936;51.490;5.436;2022-08-24T04:04:11;109.78;;;56.55;;
64641;SDS011;59936;51.490;5.436;2022-08-24T04:05:08;109.82;;;57.60;;
64641;SDS011;59936;51.490;5.436;2022-08-24T04:06:07;98.32;;;54.63;;
64641;SDS011;59936;51.490;5.436;2022-08-24T04:07:06;102.45;;;55.40;;
64641;SDS011;59936;51.490;5.436;2022-08-24T04:08:04;104.75;;;54.97;;
64641;SDS011;59936;51.490;5.436;2022-08-24T04:09:03;100.10;;;54.05;;
64641;SDS011;59936;51.490;5.436;2022-08-24T04:10:03;89.95;;;53.63;;
64641;SDS011;59936;51.490;5.436;2022-08-24T04:11:01;96.03;;;53.33;;
64641;SDS011;59936;51.490;5.436;2022-08-24T04:12:00;96.40;;;52.85;;
64641;SDS011;59936;51.490;5.436;2022-08-24T04:12:57;95.00;;;52.08;;
64641;SDS011;59936;51.490;5.436;2022-08-24T04:13:57;97.83;;;54.07;;
64641;SDS011;59936;51.490;5.436;2022-08-24T04:14:54;98.82;;;54.90;;
64641;SDS011;59936;51.490;5.436;2022-08-24T04:15:52;95.85;;;53.95;;
64641;SDS011;59936;51.490;5.436;2022-08-24T04:16:49;102.18;;;55.70;;
64641;SDS011;59936;51.490;5.436;2022-08-24T04:17:47;95.35;;;52.75;;
64641;SDS011;59936;51.490;5.436;2022-08-24T04:18:44;93.80;;;53.55;;
64641;SDS011;59936;51.490;5.436;2022-08-24T04:19:43;94.93;;;53.75;;
64641;SDS011;59936;51.490;5.436;2022-08-24T04:20:53;94.57;;;52.78;;
64641;SDS011;59936;51.490;5.436;2022-08-24T04:21:50;99.90;;;55.58;;
64641;SDS011;59936;51.490;5.436;2022-08-24T04:22:48;103.32;;;56.15;;
64641;SDS011;59936;51.490;5.436;2022-08-24T04:23:47;101.05;;;55.15;;
64641;SDS011;59936;51.490;5.436;2022-08-24T04:24:48;101.88;;;56.03;;
64641;SDS011;59936;51.490;5.436;2022-08-24T04:25:46;102.90;;;55.42;;
64641;SDS011;59936;51.490;5.436;2022-08-24T04:26:44;101.47;;;55.95;;
64641;SDS011;59936;51.490;5.436;2022-08-24T04:27:42;103.63;;;54.08;;
64641;SDS011;59936;51.490;5.436;2022-08-24T04:28:40;104.03;;;55.58;;
64641;SDS011;59936;51.490;5.436;2022-08-24T04:29:38;106.70;;;56.67;;
64641;SDS011;59936;51.490;5.436;2022-08-24T04:30:38;107.07;;;55.40;;
64641;SDS011;59936;51.490;5.436;2022-08-24T04:31:39;105.30;;;56.70;;
64641;SDS011;59936;51.490;5.436;2022-08-24T04:33:36;109.57;;;54.97;;
64641;SDS011;59936;51.490;5.436;2022-08-24T04:34:34;113.57;;;57.95;;
64641;SDS011;59936;51.490;5.436;2022-08-24T04:35:35;113.03;;;60.30;;
64641;SDS011;59936;51.490;5.436;2022-08-24T04:36:34;122.95;;;62.65;;
64641;SDS011;59936;51.490;5.436;2022-08-24T04:37:31;124.68;;;62.25;;
64641;SDS011;59936;51.490;5.436;2022-08-24T04:38:29;123.78;;;61.65;;
64641;SDS011;59936;51.490;5.436;2022-08-24T04:39:27;120.78;;;59.50;;
64641;SDS011;59936;51.490;5.436;2022-08-24T04:40:24;115.18;;;59.70;;
64641;SDS011;59936;51.490;5.436;2022-08-24T04:41:22;124.47;;;62.90;;
64641;SDS011;59936;51.490;5.436;2022-08-24T04:42:19;123.88;;;64.13;;
64641;SDS011;59936;51.490;5.436;2022-08-24T04:43:17;130.27;;;65.10;;
64641;SDS011;59936;51.490;5.436;2022-08-24T04:44:14;128.57;;;63.88;;
64641;SDS011;59936;51.490;5.436;2022-08-24T04:45:12;135.32;;;65.78;;
64641;SDS011;59936;51.490;5.436;2022-08-24T04:46:10;130.85;;;65.38;;
64641;SDS011;59936;51.490;5.436;2022-08-24T04:47:14;135.88;;;64.32;;
64641;SDS011;59936;51.490;5.436;2022-08-24T04:48:11;132.88;;;65.50;;
64641;SDS011;59936;51.490;5.436;2022-08-24T04:49:11;145.57;;;68.30;;
64641;SDS011;59936;51.490;5.436;2022-08-24T04:50:08;146.30;;;68.70;;
64641;SDS011;59936;51.490;5.436;2022-08-24T04:51:06;148.13;;;69.68;;
64641;SDS011;59936;51.490;5.436;2022-08-24T04:52:07;154.85;;;70.57;;
64641;SDS011;59936;51.490;5.436;2022-08-24T04:53:06;145.93;;;69.07;;
64641;SDS011;59936;51.490;5.436;2022-08-24T04:54:04;151.75;;;73.15;;
64641;SDS011;59936;51.490;5.436;2022-08-24T04:55:03;148.10;;;71.75;;
64641;SDS011;59936;51.490;5.436;2022-08-24T04:56:02;148.55;;;71.63;;
64641;SDS011;59936;51.490;5.436;2022-08-24T04:57:01;147.57;;;70.28;;
64641;SDS011;59936;51.490;5.436;2022-08-24T04:57:58;156.00;;;72.18;;
64641;SDS011;59936;51.490;5.436;2022-08-24T04:58:56;154.38;;;72.60;;
64641;SDS011;59936;51.490;5.436;2022-08-24T04:59:56;152.55;;;72.20;;
64641;SDS011;59936;51.490;5.436;2022-08-24T05:00:54;153.63;;;71.30;;
64641;SDS011;59936;51.490;5.436;2022-08-24T05:01:52;146.75;;;71.07;;
64641;SDS011;59936;51.490;5.436;2022-08-24T05:02:50;155.60;;;71.95;;
64641;SDS011;59936;51.490;5.436;2022-08-24T05:03:48;155.80;;;72.55;;
64641;SDS011;59936;51.490;5.436;2022-08-24T05:04:49;153.05;;;70.07;;
64641;SDS011;59936;51.490;5.436;2022-08-24T05:05:48;152.73;;;69.70;;
64641;SDS011;59936;51.490;5.436;2022-08-24T05:06:47;152.00;;;68.78;;
64641;SDS011;59936;51.490;5.436;2022-08-24T05:07:46;155.25;;;70.18;;
64641;SDS011;59936;51.490;5.436;2022-08-24T05:08:43;144.82;;;68.18;;
64641;SDS011;59936;51.490;5.436;2022-08-24T05:09:43;154.30;;;72.28;;
64641;SDS011;59936;51.490;5.436;2022-08-24T05:10:41;143.77;;;68.70;;
64641;SDS011;59936;51.490;5.436;2022-08-24T05:11:43;138.10;;;67.80;;
64641;SDS011;59936;51.490;5.436;2022-08-24T05:12:40;142.40;;;68.38;;
64641;SDS011;59936;51.490;5.436;2022-08-24T05:13:38;148.27;;;69.60;;
64641;SDS011;59936;51.490;5.436;2022-08-24T05:14:36;139.65;;;67.40;;
64641;SDS011;59936;51.490;5.436;2022-08-24T05:15:34;149.30;;;72.05;;
64641;SDS011;59936;51.490;5.436;2022-08-24T05:16:36;146.10;;;69.47;;
64641;SDS011;59936;51.490;5.436;2022-08-24T05:17:33;138.65;;;68.65;;
64641;SDS011;59936;51.490;5.436;2022-08-24T05:18:31;146.57;;;69.55;;
64641;SDS011;59936;51.490;5.436;2022-08-24T05:19:29;141.27;;;68.40;;
64641;SDS011;59936;51.490;5.436;2022-08-24T05:20:27;129.73;;;65.70;;
64641;SDS011;59936;51.490;5.436;2022-08-24T05:21:25;129.13;;;66.68;;
64641;SDS011;59936;51.490;5.436;2022-08-24T05:22:24;125.32;;;63.78;;
64641;SDS011;59936;51.490;5.436;2022-08-24T05:23:21;126.28;;;65.55;;
64641;SDS011;59936;51.490;5.436;2022-08-24T05:24:19;120.25;;;62.88;;
64641;SDS011;59936;51.490;5.436;2022-08-24T05:25:16;119.43;;;62.67;;
64641;SDS011;59936;51.490;5.436;2022-08-24T05:26:16;126.75;;;65.25;;
64641;SDS011;59936;51.490;5.436;2022-08-24T05:27:20;113.85;;;60.53;;
64641;SDS011;59936;51.490;5.436;2022-08-24T05:28:18;111.68;;;59.70;;
64641;SDS011;59936;51.490;5.436;2022-08-24T05:29:16;111.03;;;59.55;;
64641;SDS011;59936;51.490;5.436;2022-08-24T05:30:14;112.63;;;61.35;;
64641;SDS011;59936;51.490;5.436;2022-08-24T05:31:17;120.72;;;65.05;;
64641;SDS011;59936;51.490;5.436;2022-08-24T05:32:17;117.05;;;64.18;;
64641;SDS011;59936;51.490;5.436;2022-08-24T05:33:15;132.82;;;66.35;;
64641;SDS011;59936;51.490;5.436;2022-08-24T05:34:13;131.23;;;66.85;;
64641;SDS011;59936;51.490;5.436;2022-08-24T05:35:11;130.90;;;67.57;;
64641;SDS011;59936;51.490;5.436;2022-08-24T05:36:22;128.18;;;66.38;;
64641;SDS011;59936;51.490;5.436;2022-08-24T05:37:23;133.65;;;65.40;;
64641;SDS011;59936;51.490;5.436;2022-08-24T05:38:20;120.63;;;63.80;;
64641;SDS011;59936;51.490;5.436;2022-08-24T05:39:18;122.00;;;64.93;;
64641;SDS011;59936;51.490;5.436;2022-08-24T05:40:16;121.72;;;64.95;;
64641;SDS011;59936;51.490;5.436;2022-08-24T05:41:16;128.63;;;66.82;;
64641;SDS011;59936;51.490;5.436;2022-08-24T05:42:14;128.60;;;65.30;;
64641;SDS011;59936;51.490;5.436;2022-08-24T05:43:11;121.43;;;63.30;;
64641;SDS011;59936;51.490;5.436;2022-08-24T05:44:08;110.82;;;60.60;;
64641;SDS011;59936;51.490;5.436;2022-08-24T05:45:07;102.05;;;57.72;;
64641;SDS011;59936;51.490;5.436;2022-08-24T05:46:06;99.25;;;58.45;;
64641;SDS011;59936;51.490;5.436;2022-08-24T05:47:03;98.47;;;57.95;;
64641;SDS011;59936;51.490;5.436;2022-08-24T05:48:01;97.45;;;58.22;;
64641;SDS011;59936;51.490;5.436;2022-08-24T05:48:59;105.95;;;60.95;;